sensor_id;sensor_type;location;lat;lon;timestamp;pressure;altitude;pressure_sealevel;temperature
14851;BMP180;7517;48.400;11.770;2023-04-03T00:00:57;96937.00;;;8.80
14851;BMP180;7517;48.400;11.770;2023-04-03T00:03:24;96935.00;;;8.80
14851;BMP180;7517;48.400;11.770;2023-04-03T00:05:51;96937.00;;;8.80
14851;BMP180;7517;48.400;11.770;2023-04-03T00:08:21;96935.00;;;8.80
14851;BMP180;7517;48.400;11.770;2023-04-03T00:10:48;96937.00;;;8.70
14851;BMP180;7517;48.400;11.770;2023-04-03T00:13:16;96937.00;;;8.70
14851;BMP180;7517;48.400;11.770;2023-04-03T00:15:44;96942.00;;;8.70
14851;BMP180;7517;48.400;11.770;2023-04-03T00:18:11;96937.00;;;8.70
14851;BMP180;7517;48.400;11.770;2023-04-03T00:20:39;96931.00;;;8.70
14851;BMP180;7517;48.400;11.770;2023-04-03T00:23:07;96940.00;;;8.70
14851;BMP180;7517;48.400;11.770;2023-04-03T00:25:36;96939.00;;;8.70
14851;BMP180;7517;48.400;11.770;2023-04-03T00:28:04;96944.00;;;8.70
14851;BMP180;7517;48.400;11.770;2023-04-03T00:30:32;96948.00;;;8.80
14851;BMP180;7517;48.400;11.770;2023-04-03T00:33:00;96941.00;;;8.80
14851;BMP180;7517;48.400;11.770;2023-04-03T00:35:28;96942.00;;;8.80
14851;BMP180;7517;48.400;11.770;2023-04-03T00:37:56;96937.00;;;8.80
14851;BMP180;7517;48.400;11.770;2023-04-03T00:40:25;96942.00;;;8.80
14851;BMP180;7517;48.400;11.770;2023-04-03T00:42:58;96947.00;;;8.80
14851;BMP180;7517;48.400;11.770;2023-04-03T00:45:33;96940.00;;;8.80
14851;BMP180;7517;48.400;11.770;2023-04-03T00:48:05;96942.00;;;8.70
14851;BMP180;7517;48.400;11.770;2023-04-03T00:50:38;96936.00;;;8.70
14851;BMP180;7517;48.400;11.770;2023-04-03T00:53:11;96939.00;;;8.70
14851;BMP180;7517;48.400;11.770;2023-04-03T00:55:39;96941.00;;;8.70
14851;BMP180;7517;48.400;11.770;2023-04-03T00:58:12;96931.00;;;8.70
14851;BMP180;7517;48.400;11.770;2023-04-03T01:00:46;96932.00;;;8.70
14851;BMP180;7517;48.400;11.770;2023-04-03T01:03:15;96929.00;;;8.70
14851;BMP180;7517;48.400;11.770;2023-04-03T01:05:42;96930.00;;;8.70
14851;BMP180;7517;48.400;11.770;2023-04-03T01:08:09;96929.00;;;8.70
14851;BMP180;7517;48.400;11.770;2023-04-03T01:10:37;96932.00;;;8.70
14851;BMP180;7517;48.400;11.770;2023-04-03T01:13:19;96929.00;;;8.70
14851;BMP180;7517;48.400;11.770;2023-04-03T01:15:47;96937.00;;;8.70
14851;BMP180;7517;48.400;11.770;2023-04-03T01:18:15;96939.00;;;8.70
14851;BMP180;7517;48.400;11.770;2023-04-03T01:24:30;96941.00;;;8.80
14851;BMP180;7517;48.400;11.770;2023-04-03T01:27:01;96943.00;;;8.80
14851;BMP180;7517;48.400;11.770;2023-04-03T01:29:31;96945.00;;;8.80
14851;BMP180;7517;48.400;11.770;2023-04-03T01:32:01;96949.00;;;8.80
14851;BMP180;7517;48.400;11.770;2023-04-03T01:34:30;96944.00;;;8.80
14851;BMP180;7517;48.400;11.770;2023-04-03T01:36:57;96945.00;;;8.80
14851;BMP180;7517;48.400;11.770;2023-04-03T01:39:25;96947.00;;;8.80
14851;BMP180;7517;48.400;11.770;2023-04-03T01:41:52;96953.00;;;8.80
14851;BMP180;7517;48.400;11.770;2023-04-03T01:44:20;96956.00;;;8.70
14851;BMP180;7517;48.400;11.770;2023-04-03T01:46:47;96955.00;;;8.70
14851;BMP180;7517;48.400;11.770;2023-04-03T01:49:16;96956.00;;;8.70
14851;BMP180;7517;48.400;11.770;2023-04-03T01:51:43;96948.00;;;8.70
14851;BMP180;7517;48.400;11.770;2023-04-03T01:54:11;96950.00;;;8.70
14851;BMP180;7517;48.400;11.770;2023-04-03T01:56:38;96950.00;;;8.70
14851;BMP180;7517;48.400;11.770;2023-04-03T01:59:05;96947.00;;;8.60
14851;BMP180;7517;48.400;11.770;2023-04-03T02:01:32;96947.00;;;8.60
14851;BMP180;7517;48.400;11.770;2023-04-03T02:03:59;96949.00;;;8.60
14851;BMP180;7517;48.400;11.770;2023-04-03T02:06:28;96950.00;;;8.60
14851;BMP180;7517;48.400;11.770;2023-04-03T02:08:55;96947.00;;;8.60
14851;BMP180;7517;48.400;11.770;2023-04-03T02:11:23;96939.00;;;8.60
14851;BMP180;7517;48.400;11.770;2023-04-03T02:13:50;96945.00;;;8.60
14851;BMP180;7517;48.400;11.770;2023-04-03T02:16:17;96939.00;;;8.60
14851;BMP180;7517;48.400;11.770;2023-04-03T02:18:45;96940.00;;;8.60
14851;BMP180;7517;48.400;11.770;2023-04-03T02:21:12;96940.00;;;8.60
14851;BMP180;7517;48.400;11.770;2023-04-03T02:23:41;96944.00;;;8.60
14851;BMP180;7517;48.400;11.770;2023-04-03T02:26:10;96941.00;;;8.50
14851;BMP180;7517;48.400;11.770;2023-04-03T02:28:38;96945.00;;;8.50
14851;BMP180;7517;48.400;11.770;2023-04-03T02:31:07;96937.00;;;8.50
14851;BMP180;7517;48.400;11.770;2023-04-03T02:33:37;96936.00;;;8.50
14851;BMP180;7517;48.400;11.770;2023-04-03T02:36:06;96932.00;;;8.50
14851;BMP180;7517;48.400;11.770;2023-04-03T02:38:34;96938.00;;;8.50
14851;BMP180;7517;48.400;11.770;2023-04-03T02:41:05;96933.00;;;8.50
14851;BMP180;7517;48.400;11.770;2023-04-03T02:43:33;96938.00;;;8.50
14851;BMP180;7517;48.400;11.770;2023-04-03T02:46:01;96932.00;;;8.50
14851;BMP180;7517;48.400;11.770;2023-04-03T02:48:28;96934.00;;;8.50
14851;BMP180;7517;48.400;11.770;2023-04-03T02:50:55;96937.00;;;8.60
14851;BMP180;7517;48.400;11.770;2023-04-03T02:53:23;96934.00;;;8.50
14851;BMP180;7517;48.400;11.770;2023-04-03T02:55:50;96938.00;;;8.50
14851;BMP180;7517;48.400;11.770;2023-04-03T02:58:19;96936.00;;;8.50
14851;BMP180;7517;48.400;11.770;2023-04-03T03:00:47;96939.00;;;8.50
14851;BMP180;7517;48.400;11.770;2023-04-03T03:03:14;96942.00;;;8.50
14851;BMP180;7517;48.400;11.770;2023-04-03T03:05:41;96941.00;;;8.50
14851;BMP180;7517;48.400;11.770;2023-04-03T03:08:08;96933.00;;;8.50
14851;BMP180;7517;48.400;11.770;2023-04-03T03:10:36;96943.00;;;8.60
14851;BMP180;7517;48.400;11.770;2023-04-03T03:13:03;96941.00;;;8.60
14851;BMP180;7517;48.400;11.770;2023-04-03T03:15:32;96926.00;;;8.60
14851;BMP180;7517;48.400;11.770;2023-04-03T03:17:59;96944.00;;;8.60
14851;BMP180;7517;48.400;11.770;2023-04-03T03:20:26;96943.00;;;8.50
14851;BMP180;7517;48.400;11.770;2023-04-03T03:22:54;96937.00;;;8.50
14851;BMP180;7517;48.400;11.770;2023-04-03T03:25:21;96944.00;;;8.50
14851;BMP180;7517;48.400;11.770;2023-04-03T03:27:48;96935.00;;;8.50
14851;BMP180;7517;48.400;11.770;2023-04-03T03:30:16;96942.00;;;8.50
14851;BMP180;7517;48.400;11.770;2023-04-03T03:32:45;96932.00;;;8.50
14851;BMP180;7517;48.400;11.770;2023-04-03T03:35:12;96938.00;;;8.50
14851;BMP180;7517;48.400;11.770;2023-04-03T03:37:39;96941.00;;;8.50
14851;BMP180;7517;48.400;11.770;2023-04-03T03:40:08;96936.00;;;8.50
14851;BMP180;7517;48.400;11.770;2023-04-03T03:42:38;96940.00;;;8.50
14851;BMP180;7517;48.400;11.770;2023-04-03T03:45:07;96929.00;;;8.50
14851;BMP180;7517;48.400;11.770;2023-04-03T03:47:35;96943.00;;;8.50
14851;BMP180;7517;48.400;11.770;2023-04-03T03:50:12;96944.00;;;8.50
14851;BMP180;7517;48.400;11.770;2023-04-03T03:52:40;96946.00;;;8.50
14851;BMP180;7517;48.400;11.770;2023-04-03T03:55:08;96948.00;;;8.50
14851;BMP180;7517;48.400;11.770;2023-04-03T03:57:35;96948.00;;;8.50
14851;BMP180;7517;48.400;11.770;2023-04-03T04:00:03;96952.00;;;8.50
14851;BMP180;7517;48.400;11.770;2023-04-03T04:02:33;96945.00;;;8.50
14851;BMP180;7517;48.400;11.770;2023-04-03T04:05:00;96947.00;;;8.50
14851;BMP180;7517;48.400;11.770;2023-04-03T04:07:29;96943.00;;;8.50
14851;BMP180;7517;48.400;11.770;2023-04-03T04:09:56;96950.00;;;8.50
14851;BMP180;7517;48.400;11.770;2023-04-03T04:12:24;96942.00;;;8.50
14851;BMP180;7517;48.400;11.770;2023-04-03T04:14:51;96951.00;;;8.50
14851;BMP180;7517;48.400;11.770;2023-04-03T04:17:18;96944.00;;;8.50
14851;BMP180;7517;48.400;11.770;2023-04-03T04:19:47;96946.00;;;8.50
14851;BMP180;7517;48.400;11.770;2023-04-03T04:22:14;96943.00;;;8.50
14851;BMP180;7517;48.400;11.770;2023-04-03T04:24:43;96949.00;;;8.50
14851;BMP180;7517;48.400;11.770;2023-04-03T04:27:10;96945.00;;;8.50
14851;BMP180;7517;48.400;11.770;2023-04-03T04:29:37;96951.00;;;8.50
14851;BMP180;7517;48.400;11.770;2023-04-03T04:32:05;96951.00;;;8.50
14851;BMP180;7517;48.400;11.770;2023-04-03T04:34:32;96955.00;;;8.50
14851;BMP180;7517;48.400;11.770;2023-04-03T04:36:59;96955.00;;;8.50
14851;BMP180;7517;48.400;11.770;2023-04-03T04:39:27;96952.00;;;8.50
14851;BMP180;7517;48.400;11.770;2023-04-03T04:41:56;96957.00;;;8.50
14851;BMP180;7517;48.400;11.770;2023-04-03T04:44:23;96962.00;;;8.50
14851;BMP180;7517;48.400;11.770;2023-04-03T04:46:50;96961.00;;;8.50
14851;BMP180;7517;48.400;11.770;2023-04-03T04:49:17;96969.00;;;8.50
14851;BMP180;7517;48.400;11.770;2023-04-03T04:51:45;96968.00;;;8.50
14851;BMP180;7517;48.400;11.770;2023-04-03T04:54:12;96969.00;;;8.50
14851;BMP180;7517;48.400;11.770;2023-04-03T04:56:39;96972.00;;;8.50
14851;BMP180;7517;48.400;11.770;2023-04-03T04:59:08;96976.00;;;8.50
14851;BMP180;7517;48.400;11.770;2023-04-03T05:01:36;96973.00;;;8.50
14851;BMP180;7517;48.400;11.770;2023-04-03T05:04:03;96973.00;;;8.50
14851;BMP180;7517;48.400;11.770;2023-04-03T05:06:30;96968.00;;;8.50
14851;BMP180;7517;48.400;11.770;2023-04-03T05:08:58;96963.00;;;8.50
14851;BMP180;7517;48.400;11.770;2023-04-03T05:11:26;96969.00;;;8.50
14851;BMP180;7517;48.400;11.770;2023-04-03T05:13:54;96969.00;;;8.50
14851;BMP180;7517;48.400;11.770;2023-04-03T05:16:23;96971.00;;;8.50
14851;BMP180;7517;48.400;11.770;2023-04-03T05:18:51;96980.00;;;8.50
14851;BMP180;7517;48.400;11.770;2023-04-03T05:21:18;96977.00;;;8.60
14851;BMP180;7517;48.400;11.770;2023-04-03T05:23:47;96976.00;;;8.60
14851;BMP180;7517;48.400;11.770;2023-04-03T05:26:14;96974.00;;;8.60
14851;BMP180;7517;48.400;11.770;2023-04-03T05:28:42;96980.00;;;8.60
14851;BMP180;7517;48.400;11.770;2023-04-03T05:31:09;96978.00;;;8.60
14851;BMP180;7517;48.400;11.770;2023-04-03T05:33:38;96974.00;;;8.60
14851;BMP180;7517;48.400;11.770;2023-04-03T05:36:06;96986.00;;;8.60
14851;BMP180;7517;48.400;11.770;2023-04-03T05:38:35;96978.00;;;8.60
14851;BMP180;7517;48.400;11.770;2023-04-03T05:41:03;96982.00;;;8.60
14851;BMP180;7517;48.400;11.770;2023-04-03T05:43:31;96981.00;;;8.60
14851;BMP180;7517;48.400;11.770;2023-04-03T05:45:59;96975.00;;;8.60
14851;BMP180;7517;48.400;11.770;2023-04-03T05:48:26;96978.00;;;8.70
14851;BMP180;7517;48.400;11.770;2023-04-03T05:50:55;96987.00;;;8.70
14851;BMP180;7517;48.400;11.770;2023-04-03T05:53:28;96985.00;;;8.70
14851;BMP180;7517;48.400;11.770;2023-04-03T05:55:57;96987.00;;;8.70
14851;BMP180;7517;48.400;11.770;2023-04-03T05:58:25;96997.00;;;8.70
14851;BMP180;7517;48.400;11.770;2023-04-03T06:00:52;96983.00;;;8.70
14851;BMP180;7517;48.400;11.770;2023-04-03T06:03:20;96990.00;;;8.80
14851;BMP180;7517;48.400;11.770;2023-04-03T06:05:48;96983.00;;;8.80
14851;BMP180;7517;48.400;11.770;2023-04-03T06:08:17;96989.00;;;8.90
14851;BMP180;7517;48.400;11.770;2023-04-03T06:10:45;96991.00;;;8.90
14851;BMP180;7517;48.400;11.770;2023-04-03T06:13:13;96997.00;;;9.00
14851;BMP180;7517;48.400;11.770;2023-04-03T06:15:42;96997.00;;;9.10
14851;BMP180;7517;48.400;11.770;2023-04-03T06:18:13;96997.00;;;9.10
14851;BMP180;7517;48.400;11.770;2023-04-03T06:20:42;96992.00;;;9.10
14851;BMP180;7517;48.400;11.770;2023-04-03T06:23:09;96990.00;;;9.20
14851;BMP180;7517;48.400;11.770;2023-04-03T06:25:40;97001.00;;;9.20
14851;BMP180;7517;48.400;11.770;2023-04-03T06:28:09;97001.00;;;9.20
14851;BMP180;7517;48.400;11.770;2023-04-03T06:30:37;97017.00;;;9.30
14851;BMP180;7517;48.400;11.770;2023-04-03T06:33:06;97010.00;;;9.30
14851;BMP180;7517;48.400;11.770;2023-04-03T06:35:33;97009.00;;;9.40
14851;BMP180;7517;48.400;11.770;2023-04-03T06:38:03;97005.00;;;9.50
14851;BMP180;7517;48.400;11.770;2023-04-03T06:40:35;97012.00;;;9.60
14851;BMP180;7517;48.400;11.770;2023-04-03T06:43:04;97020.00;;;9.70
14851;BMP180;7517;48.400;11.770;2023-04-03T06:45:32;97015.00;;;9.70
14851;BMP180;7517;48.400;11.770;2023-04-03T06:47:59;97020.00;;;9.80
14851;BMP180;7517;48.400;11.770;2023-04-03T06:50:27;97021.00;;;9.80
14851;BMP180;7517;48.400;11.770;2023-04-03T06:52:54;97009.00;;;9.90
14851;BMP180;7517;48.400;11.770;2023-04-03T06:55:22;97014.00;;;10.00
14851;BMP180;7517;48.400;11.770;2023-04-03T06:57:50;97015.00;;;10.00
14851;BMP180;7517;48.400;11.770;2023-04-03T07:00:20;97019.00;;;10.00
14851;BMP180;7517;48.400;11.770;2023-04-03T07:02:48;97020.00;;;10.10
14851;BMP180;7517;48.400;11.770;2023-04-03T07:05:15;97030.00;;;10.10
14851;BMP180;7517;48.400;11.770;2023-04-03T07:07:44;97028.00;;;10.10
14851;BMP180;7517;48.400;11.770;2023-04-03T07:10:13;97041.00;;;10.20
14851;BMP180;7517;48.400;11.770;2023-04-03T07:12:40;97036.00;;;10.20
14851;BMP180;7517;48.400;11.770;2023-04-03T07:15:09;97036.00;;;10.20
14851;BMP180;7517;48.400;11.770;2023-04-03T07:17:39;97044.00;;;10.20
14851;BMP180;7517;48.400;11.770;2023-04-03T07:20:08;97050.00;;;10.20
14851;BMP180;7517;48.400;11.770;2023-04-03T07:22:36;97049.00;;;10.10
14851;BMP180;7517;48.400;11.770;2023-04-03T07:25:06;97042.00;;;10.10
14851;BMP180;7517;48.400;11.770;2023-04-03T07:27:34;97049.00;;;10.10
14851;BMP180;7517;48.400;11.770;2023-04-03T07:30:01;97052.00;;;10.10
14851;BMP180;7517;48.400;11.770;2023-04-03T07:32:29;97053.00;;;10.10
14851;BMP180;7517;48.400;11.770;2023-04-03T07:34:58;97052.00;;;10.10
14851;BMP180;7517;48.400;11.770;2023-04-03T07:37:25;97051.00;;;10.10
14851;BMP180;7517;48.400;11.770;2023-04-03T07:39:53;97064.00;;;10.10
14851;BMP180;7517;48.400;11.770;2023-04-03T07:42:23;97060.00;;;10.20
14851;BMP180;7517;48.400;11.770;2023-04-03T07:44:50;97060.00;;;10.20
14851;BMP180;7517;48.400;11.770;2023-04-03T07:47:18;97064.00;;;10.20
14851;BMP180;7517;48.400;11.770;2023-04-03T07:49:46;97071.00;;;10.30
14851;BMP180;7517;48.400;11.770;2023-04-03T07:52:15;97070.00;;;10.40
14851;BMP180;7517;48.400;11.770;2023-04-03T07:54:43;97069.00;;;10.40
14851;BMP180;7517;48.400;11.770;2023-04-03T07:57:10;97073.00;;;10.40
14851;BMP180;7517;48.400;11.770;2023-04-03T07:59:37;97071.00;;;10.40
14851;BMP180;7517;48.400;11.770;2023-04-03T08:02:05;97073.00;;;10.40
14851;BMP180;7517;48.400;11.770;2023-04-03T08:04:33;97072.00;;;10.50
14851;BMP180;7517;48.400;11.770;2023-04-03T08:07:01;97070.00;;;10.50
14851;BMP180;7517;48.400;11.770;2023-04-03T08:09:29;97078.00;;;10.60
14851;BMP180;7517;48.400;11.770;2023-04-03T08:11:57;97075.00;;;10.60
14851;BMP180;7517;48.400;11.770;2023-04-03T08:14:25;97076.00;;;10.70
14851;BMP180;7517;48.400;11.770;2023-04-03T08:16:52;97068.00;;;10.80
14851;BMP180;7517;48.400;11.770;2023-04-03T08:19:19;97079.00;;;10.90
14851;BMP180;7517;48.400;11.770;2023-04-03T08:21:47;97070.00;;;11.00
14851;BMP180;7517;48.400;11.770;2023-04-03T08:24:15;97072.00;;;11.10
14851;BMP180;7517;48.400;11.770;2023-04-03T08:26:43;97076.00;;;11.20
14851;BMP180;7517;48.400;11.770;2023-04-03T08:29:10;97075.00;;;11.30
14851;BMP180;7517;48.400;11.770;2023-04-03T08:31:39;97080.00;;;11.40
14851;BMP180;7517;48.400;11.770;2023-04-03T08:34:06;97085.00;;;11.40
14851;BMP180;7517;48.400;11.770;2023-04-03T08:36:34;97077.00;;;11.50
14851;BMP180;7517;48.400;11.770;2023-04-03T08:39:02;97077.00;;;11.50
14851;BMP180;7517;48.400;11.770;2023-04-03T08:41:35;97075.00;;;11.60
14851;BMP180;7517;48.400;11.770;2023-04-03T08:44:22;97081.00;;;11.70
14851;BMP180;7517;48.400;11.770;2023-04-03T08:47:18;97081.00;;;11.80
14851;BMP180;7517;48.400;11.770;2023-04-03T08:49:52;97086.00;;;11.90
14851;BMP180;7517;48.400;11.770;2023-04-03T08:52:27;97089.00;;;12.00
14851;BMP180;7517;48.400;11.770;2023-04-03T08:54:57;97088.00;;;12.10
14851;BMP180;7517;48.400;11.770;2023-04-03T08:57:30;97094.00;;;12.10
14851;BMP180;7517;48.400;11.770;2023-04-03T09:00:07;97085.00;;;12.20
14851;BMP180;7517;48.400;11.770;2023-04-03T09:02:46;97097.00;;;12.20
14851;BMP180;7517;48.400;11.770;2023-04-03T09:05:17;97094.00;;;12.20
14851;BMP180;7517;48.400;11.770;2023-04-03T09:07:55;97088.00;;;12.10
14851;BMP180;7517;48.400;11.770;2023-04-03T09:10:28;97096.00;;;12.20
14851;BMP180;7517;48.400;11.770;2023-04-03T09:13:05;97097.00;;;12.10
14851;BMP180;7517;48.400;11.770;2023-04-03T09:15:35;97100.00;;;12.10
14851;BMP180;7517;48.400;11.770;2023-04-03T09:18:11;97100.00;;;12.10
14851;BMP180;7517;48.400;11.770;2023-04-03T09:20:46;97103.00;;;12.20
14851;BMP180;7517;48.400;11.770;2023-04-03T09:23:28;97105.00;;;12.20
14851;BMP180;7517;48.400;11.770;2023-04-03T09:26:03;97107.00;;;12.30
14851;BMP180;7517;48.400;11.770;2023-04-03T09:28:39;97105.00;;;12.30
14851;BMP180;7517;48.400;11.770;2023-04-03T09:31:20;97108.00;;;12.30
14851;BMP180;7517;48.400;11.770;2023-04-03T09:33:54;97107.00;;;12.30
14851;BMP180;7517;48.400;11.770;2023-04-03T09:36:45;97103.00;;;12.30
14851;BMP180;7517;48.400;11.770;2023-04-03T09:39:17;97098.00;;;12.40
14851;BMP180;7517;48.400;11.770;2023-04-03T09:42:01;97109.00;;;12.40
14851;BMP180;7517;48.400;11.770;2023-04-03T09:44:34;97096.00;;;12.50
14851;BMP180;7517;48.400;11.770;2023-04-03T09:47:21;97096.00;;;12.60
14851;BMP180;7517;48.400;11.770;2023-04-03T09:49:51;97095.00;;;12.60
14851;BMP180;7517;48.400;11.770;2023-04-03T09:52:25;97096.00;;;12.70
14851;BMP180;7517;48.400;11.770;2023-04-03T09:55:06;97102.00;;;12.70
14851;BMP180;7517;48.400;11.770;2023-04-03T09:57:35;97097.00;;;12.70
14851;BMP180;7517;48.400;11.770;2023-04-03T10:00:20;97094.00;;;12.70
14851;BMP180;7517;48.400;11.770;2023-04-03T10:02:53;97102.00;;;12.80
14851;BMP180;7517;48.400;11.770;2023-04-03T10:05:32;97097.00;;;12.80
14851;BMP180;7517;48.400;11.770;2023-04-03T10:08:25;97100.00;;;12.80
14851;BMP180;7517;48.400;11.770;2023-04-03T10:11:10;97102.00;;;12.80
14851;BMP180;7517;48.400;11.770;2023-04-03T10:13:52;97091.00;;;12.90
14851;BMP180;7517;48.400;11.770;2023-04-03T10:16:28;97093.00;;;12.90
14851;BMP180;7517;48.400;11.770;2023-04-03T10:19:13;97100.00;;;12.90
14851;BMP180;7517;48.400;11.770;2023-04-03T10:21:50;97102.00;;;12.80
14851;BMP180;7517;48.400;11.770;2023-04-03T10:24:28;97100.00;;;12.70
14851;BMP180;7517;48.400;11.770;2023-04-03T10:27:06;97113.00;;;12.70
14851;BMP180;7517;48.400;11.770;2023-04-03T10:29:45;97108.00;;;12.80
14851;BMP180;7517;48.400;11.770;2023-04-03T10:32:54;97107.00;;;12.90
14851;BMP180;7517;48.400;11.770;2023-04-03T10:35:42;97098.00;;;13.00
14851;BMP180;7517;48.400;11.770;2023-04-03T10:38:22;97093.00;;;13.20
14851;BMP180;7517;48.400;11.770;2023-04-03T10:40:57;97091.00;;;13.40
14851;BMP180;7517;48.400;11.770;2023-04-03T10:43:38;97105.00;;;13.60
14851;BMP180;7517;48.400;11.770;2023-04-03T10:46:12;97100.00;;;13.60
14851;BMP180;7517;48.400;11.770;2023-04-03T10:49:10;97105.00;;;13.60
14851;BMP180;7517;48.400;11.770;2023-04-03T10:51:46;97102.00;;;13.50
14851;BMP180;7517;48.400;11.770;2023-04-03T10:54:22;97102.00;;;13.40
14851;BMP180;7517;48.400;11.770;2023-04-03T10:56:56;97102.00;;;13.30
14851;BMP180;7517;48.400;11.770;2023-04-03T10:59:29;97098.00;;;13.20
14851;BMP180;7517;48.400;11.770;2023-04-03T11:02:04;97103.00;;;13.20
14851;BMP180;7517;48.400;11.770;2023-04-03T11:04:37;97095.00;;;13.20
14851;BMP180;7517;48.400;11.770;2023-04-03T11:07:15;97092.00;;;13.20
14851;BMP180;7517;48.400;11.770;2023-04-03T11:09:48;97087.00;;;13.20
14851;BMP180;7517;48.400;11.770;2023-04-03T11:12:25;97079.00;;;13.20
14851;BMP180;7517;48.400;11.770;2023-04-03T11:14:56;97088.00;;;13.20
14851;BMP180;7517;48.400;11.770;2023-04-03T11:17:33;97087.00;;;13.20
14851;BMP180;7517;48.400;11.770;2023-04-03T11:20:14;97080.00;;;13.20
14851;BMP180;7517;48.400;11.770;2023-04-03T11:22:50;97072.00;;;13.10
14851;BMP180;7517;48.400;11.770;2023-04-03T11:25:23;97076.00;;;13.10
14851;BMP180;7517;48.400;11.770;2023-04-03T11:27:55;97075.00;;;13.20
14851;BMP180;7517;48.400;11.770;2023-04-03T11:30:30;97074.00;;;13.30
14851;BMP180;7517;48.400;11.770;2023-04-03T11:33:43;97074.00;;;13.40
14851;BMP180;7517;48.400;11.770;2023-04-03T11:36:22;97073.00;;;13.50
14851;BMP180;7517;48.400;11.770;2023-04-03T11:38:58;97067.00;;;13.60
14851;BMP180;7517;48.400;11.770;2023-04-03T11:41:30;97067.00;;;13.70
14851;BMP180;7517;48.400;11.770;2023-04-03T11:44:02;97067.00;;;13.70
14851;BMP180;7517;48.400;11.770;2023-04-03T11:46:50;97057.00;;;13.70
14851;BMP180;7517;48.400;11.770;2023-04-03T11:49:55;97062.00;;;13.70
14851;BMP180;7517;48.400;11.770;2023-04-03T11:53:03;97053.00;;;13.70
14851;BMP180;7517;48.400;11.770;2023-04-03T11:55:56;97051.00;;;13.60
14851;BMP180;7517;48.400;11.770;2023-04-03T11:58:27;97053.00;;;13.60
14851;BMP180;7517;48.400;11.770;2023-04-03T12:01:07;97046.00;;;13.70
14851;BMP180;7517;48.400;11.770;2023-04-03T12:04:08;97050.00;;;13.70
14851;BMP180;7517;48.400;11.770;2023-04-03T12:07:11;97043.00;;;13.80
14851;BMP180;7517;48.400;11.770;2023-04-03T12:10:18;97042.00;;;13.80
14851;BMP180;7517;48.400;11.770;2023-04-03T12:13:13;97049.00;;;13.70
14851;BMP180;7517;48.400;11.770;2023-04-03T12:16:02;97053.00;;;13.60
14851;BMP180;7517;48.400;11.770;2023-04-03T12:19:00;97053.00;;;13.40
14851;BMP180;7517;48.400;11.770;2023-04-03T12:24:49;97042.00;;;13.10
14851;BMP180;7517;48.400;11.770;2023-04-03T12:27:29;97042.00;;;13.00
14851;BMP180;7517;48.400;11.770;2023-04-03T12:30:19;97046.00;;;12.90
14851;BMP180;7517;48.400;11.770;2023-04-03T12:33:20;97042.00;;;12.90
14851;BMP180;7517;48.400;11.770;2023-04-03T12:36:05;97045.00;;;12.90
14851;BMP180;7517;48.400;11.770;2023-04-03T12:39:13;97044.00;;;12.80
14851;BMP180;7517;48.400;11.770;2023-04-03T12:41:54;97043.00;;;12.70
14851;BMP180;7517;48.400;11.770;2023-04-03T12:44:47;97037.00;;;12.60
14851;BMP180;7517;48.400;11.770;2023-04-03T12:47:32;97028.00;;;12.40
14851;BMP180;7517;48.400;11.770;2023-04-03T12:50:13;97030.00;;;12.30
14851;BMP180;7517;48.400;11.770;2023-04-03T12:52:49;97030.00;;;12.30
14851;BMP180;7517;48.400;11.770;2023-04-03T12:55:20;97024.00;;;12.20
14851;BMP180;7517;48.400;11.770;2023-04-03T12:57:48;97010.00;;;12.20
14851;BMP180;7517;48.400;11.770;2023-04-03T13:00:27;97012.00;;;12.30
14851;BMP180;7517;48.400;11.770;2023-04-03T13:02:59;97010.00;;;12.30
14851;BMP180;7517;48.400;11.770;2023-04-03T13:05:29;97009.00;;;12.30
14851;BMP180;7517;48.400;11.770;2023-04-03T13:08:02;96999.00;;;12.30
14851;BMP180;7517;48.400;11.770;2023-04-03T13:10:49;97002.00;;;12.30
14851;BMP180;7517;48.400;11.770;2023-04-03T13:13:17;97008.00;;;12.40
14851;BMP180;7517;48.400;11.770;2023-04-03T13:15:48;97002.00;;;12.50
14851;BMP180;7517;48.400;11.770;2023-04-03T13:18:29;97009.00;;;12.60
14851;BMP180;7517;48.400;11.770;2023-04-03T13:21:04;97015.00;;;12.70
14851;BMP180;7517;48.400;11.770;2023-04-03T13:23:36;97023.00;;;12.80
14851;BMP180;7517;48.400;11.770;2023-04-03T13:26:05;97025.00;;;12.90
14851;BMP180;7517;48.400;11.770;2023-04-03T13:28:35;97022.00;;;12.90
14851;BMP180;7517;48.400;11.770;2023-04-03T13:31:13;97017.00;;;12.90
14851;BMP180;7517;48.400;11.770;2023-04-03T13:33:57;97024.00;;;12.80
14851;BMP180;7517;48.400;11.770;2023-04-03T13:36:30;97026.00;;;12.70
14851;BMP180;7517;48.400;11.770;2023-04-03T13:39:01;97020.00;;;12.60
14851;BMP180;7517;48.400;11.770;2023-04-03T13:41:39;97013.00;;;12.50
14851;BMP180;7517;48.400;11.770;2023-04-03T13:44:31;97015.00;;;12.40
14851;BMP180;7517;48.400;11.770;2023-04-03T13:47:16;97014.00;;;12.30
14851;BMP180;7517;48.400;11.770;2023-04-03T13:49:59;97018.00;;;12.20
14851;BMP180;7517;48.400;11.770;2023-04-03T13:52:31;97004.00;;;12.10
14851;BMP180;7517;48.400;11.770;2023-04-03T13:55:16;97010.00;;;12.00
14851;BMP180;7517;48.400;11.770;2023-04-03T13:57:56;97001.00;;;11.90
14851;BMP180;7517;48.400;11.770;2023-04-03T14:00:36;97003.00;;;11.80
14851;BMP180;7517;48.400;11.770;2023-04-03T14:03:14;97004.00;;;11.80
14851;BMP180;7517;48.400;11.770;2023-04-03T14:05:46;97007.00;;;11.70
14851;BMP180;7517;48.400;11.770;2023-04-03T14:08:14;97001.00;;;11.70
14851;BMP180;7517;48.400;11.770;2023-04-03T14:10:42;97005.00;;;11.70
14851;BMP180;7517;48.400;11.770;2023-04-03T14:13:14;96996.00;;;11.70
14851;BMP180;7517;48.400;11.770;2023-04-03T14:15:43;97009.00;;;11.70
14851;BMP180;7517;48.400;11.770;2023-04-03T14:18:12;97007.00;;;11.70
14851;BMP180;7517;48.400;11.770;2023-04-03T14:20:40;97005.00;;;11.70
14851;BMP180;7517;48.400;11.770;2023-04-03T14:23:10;96997.00;;;11.70
14851;BMP180;7517;48.400;11.770;2023-04-03T14:25:38;96992.00;;;11.80
14851;BMP180;7517;48.400;11.770;2023-04-03T14:28:16;96999.00;;;11.90
14851;BMP180;7517;48.400;11.770;2023-04-03T14:30:46;96999.00;;;11.90
14851;BMP180;7517;48.400;11.770;2023-04-03T14:33:16;97002.00;;;11.90
14851;BMP180;7517;48.400;11.770;2023-04-03T14:35:45;96989.00;;;11.90
14851;BMP180;7517;48.400;11.770;2023-04-03T14:38:23;96996.00;;;12.00
14851;BMP180;7517;48.400;11.770;2023-04-03T14:40:52;96988.00;;;12.00
14851;BMP180;7517;48.400;11.770;2023-04-03T14:43:20;96999.00;;;11.90
14851;BMP180;7517;48.400;11.770;2023-04-03T14:45:50;96991.00;;;11.90
14851;BMP180;7517;48.400;11.770;2023-04-03T14:48:21;96999.00;;;12.00
14851;BMP180;7517;48.400;11.770;2023-04-03T14:50:51;96999.00;;;12.10